Time,TemperatureF,DewpointF,PressureIn,WindDirection,WindDirectionDegrees,WindSpeedMPH,WindSpeedGustMPH,Humidity,HourlyPrecipIn,Conditions,Clouds,dailyrainin,SolarRadiationWatts/m^2,SoftwareType,DateUTC
2013-05-21 00:01:00,54.0,31.0,-100.00,West,264,0.0,5.0,42,0.00,,,0.00,0.000000,,2013-05-21 07:01:00,
2013-05-21 00:11:00,54.0,31.0,-100.00,West,264,0.0,5.0,42,0.00,,,0.00,0.000000,,2013-05-21 07:11:00,
2013-05-21 00:21:00,54.0,31.0,-100.00,West,264,0.0,5.0,42,0.00,,,0.00,0.000000,,2013-05-21 07:21:00,
2013-05-21 00:52:00,52.0,27.0,-100.00,ENE,70,1.0,7.0,37,0.00,,,0.00,0.000000,,2013-05-21 07:52:00,
2013-05-21 01:01:00,52.0,27.0,-100.00,ENE,70,1.0,7.0,37,0.00,,,0.00,0.000000,,2013-05-21 08:01:00,
2013-05-21 01:11:00,52.0,27.0,-100.00,ENE,70,1.0,7.0,37,0.00,,,0.00,0.000000,,2013-05-21 08:11:00,
2013-05-21 01:21:00,52.0,27.0,-100.00,ENE,70,1.0,7.0,37,0.00,,,0.00,0.000000,,2013-05-21 08:21:00,
2013-05-21 01:52:00,52.0,26.0,-100.00,SSW,204,0.0,6.0,36,0.00,,,0.00,0.000000,,2013-05-21 08:52:00,
2013-05-21 02:01:00,52.0,26.0,-100.00,SSW,204,0.0,6.0,36,0.00,,,0.00,0.000000,,2013-05-21 09:01:00,
2013-05-21 02:11:00,52.0,26.0,-100.00,SSW,204,0.0,6.0,36,0.00,,,0.00,0.000000,,2013-05-21 09:11:00,
2013-05-21 02:21:00,52.0,26.0,-100.00,SSW,204,0.0,6.0,36,0.00,,,0.00,0.000000,,2013-05-21 09:21:00,
2013-05-21 02:53:00,53.0,27.0,-100.00,NW,317,1.0,8.0,37,0.00,,,0.00,0.000000,,2013-05-21 09:53:00,
2013-05-21 03:02:00,53.0,27.0,-100.00,NW,317,1.0,8.0,37,0.00,,,0.00,0.000000,,2013-05-21 10:02:00,
2013-05-21 03:12:00,53.0,27.0,-100.00,NW,317,1.0,8.0,37,0.00,,,0.00,0.000000,,2013-05-21 10:12:00,
2013-05-21 03:22:00,53.0,27.0,-100.00,NW,317,1.0,8.0,37,0.00,,,0.00,0.000000,,2013-05-21 10:22:00,
2013-05-21 03:52:00,51.0,26.0,-100.00,West,273,5.0,9.0,38,0.00,,,0.00,0.000000,,2013-05-21 10:52:00,
2013-05-21 04:02:00,51.0,26.0,-100.00,West,273,5.0,9.0,38,0.00,,,0.00,0.000000,,2013-05-21 11:02:00,
2013-05-21 04:11:00,51.0,26.0,-100.00,West,273,5.0,9.0,38,0.00,,,0.00,0.000000,,2013-05-21 11:11:00,
2013-05-21 04:21:00,51.0,26.0,-100.00,West,273,5.0,9.0,38,0.00,,,0.00,0.000000,,2013-05-21 11:21:00,
2013-05-21 04:52:00,50.0,26.0,-100.00,West,269,2.0,12.0,39,0.00,,,0.00,0.000000,,2013-05-21 11:52:00,
2013-05-21 05:01:00,50.0,26.0,-100.00,West,269,2.0,12.0,39,0.00,,,0.00,0.000000,,2013-05-21 12:01:00,
2013-05-21 05:11:00,50.0,26.0,-100.00,West,269,2.0,12.0,39,0.00,,,0.00,0.000000,,2013-05-21 12:11:00,
2013-05-21 05:21:00,50.0,26.0,-100.00,West,269,2.0,12.0,39,0.00,,,0.00,0.000000,,2013-05-21 12:21:00,
2013-05-21 05:52:00,50.0,27.0,-100.00,West,260,4.0,11.0,40,0.00,,,0.00,1.000000,,2013-05-21 12:52:00,
2013-05-21 06:01:00,50.0,27.0,-100.00,West,260,4.0,11.0,40,0.00,,,0.00,1.000000,,2013-05-21 13:01:00,
2013-05-21 06:11:00,50.0,27.0,-100.00,West,260,4.0,11.0,40,0.00,,,0.00,1.000000,,2013-05-21 13:11:00,
2013-05-21 06:22:00,50.0,27.0,-100.00,West,260,4.0,11.0,40,0.00,,,0.00,1.000000,,2013-05-21 13:22:00,
2013-05-21 06:52:00,53.0,29.0,-100.00,SE,134,1.0,9.0,39,0.00,,,0.00,82.000000,,2013-05-21 13:52:00,
2013-05-21 07:01:00,53.0,29.0,-100.00,SE,134,1.0,9.0,39,0.00,,,0.00,82.000000,,2013-05-21 14:01:00,
2013-05-21 07:11:00,53.0,29.0,-100.00,SE,134,1.0,9.0,39,0.00,,,0.00,82.000000,,2013-05-21 14:11:00,
2013-05-21 07:21:00,53.0,29.0,-100.00,SE,134,1.0,9.0,39,0.00,,,0.00,82.000000,,2013-05-21 14:21:00,
2013-05-21 07:52:00,53.0,31.0,-100.00,ESE,103,2.0,12.0,43,0.00,,,0.00,126.000000,,2013-05-21 14:52:00,
2013-05-21 08:01:00,53.0,31.0,-100.00,ESE,103,2.0,12.0,43,0.00,,,0.00,126.000000,,2013-05-21 15:01:00,
2013-05-21 08:11:00,53.0,31.0,-100.00,ESE,103,2.0,12.0,43,0.00,,,0.00,126.000000,,2013-05-21 15:11:00,
2013-05-21 08:21:00,53.0,31.0,-100.00,ESE,103,2.0,12.0,43,0.00,,,0.00,126.000000,,2013-05-21 15:21:00,
2013-05-21 08:52:00,56.0,33.0,-100.00,WNW,289,0.0,8.0,41,0.00,,,0.00,264.000000,,2013-05-21 15:52:00,
2013-05-21 09:02:00,56.0,33.0,-100.00,WNW,289,0.0,8.0,41,0.00,,,0.00,264.000000,,2013-05-21 16:02:00,
2013-05-21 09:12:00,56.0,33.0,-100.00,WNW,289,0.0,8.0,41,0.00,,,0.00,264.000000,,2013-05-21 16:12:00,
2013-05-21 09:23:00,56.0,33.0,-100.00,WNW,289,0.0,8.0,41,0.00,,,0.00,264.000000,,2013-05-21 16:23:00,
2013-05-21 09:53:00,61.0,34.0,-100.00,SE,142,1.0,6.0,36,0.00,,,0.00,338.000000,,2013-05-21 16:53:00,
2013-05-21 10:02:00,61.0,34.0,-100.00,SE,142,1.0,6.0,36,0.00,,,0.00,338.000000,,2013-05-21 17:02:00,
2013-05-21 10:12:00,61.0,34.0,-100.00,SE,142,1.0,6.0,36,0.00,,,0.00,338.000000,,2013-05-21 17:12:00,
2013-05-21 10:22:00,61.0,34.0,-100.00,SE,142,1.0,6.0,36,0.00,,,0.00,338.000000,,2013-05-21 17:22:00,
2013-05-21 10:52:00,65.0,35.0,-100.00,WSW,248,2.0,9.0,33,0.00,,,0.00,414.000000,,2013-05-21 17:52:00,
2013-05-21 11:01:00,65.0,35.0,-100.00,WSW,248,2.0,9.0,33,0.00,,,0.00,414.000000,,2013-05-21 18:01:00,
2013-05-21 11:52:00,51.0,35.0,-100.00,NNW,329,4.0,11.0,55,0.00,,,0.00,456.000000,,2013-05-21 18:52:00,
2013-05-21 12:01:00,51.0,35.0,-100.00,NNW,329,4.0,11.0,55,0.00,,,0.00,456.000000,,2013-05-21 19:01:00,
2013-05-21 12:11:00,51.0,35.0,-100.00,NNW,329,4.0,11.0,55,0.00,,,0.00,456.000000,,2013-05-21 19:11:00,
2013-05-21 12:21:00,51.0,35.0,-100.00,NNW,329,4.0,11.0,55,0.00,,,0.00,456.000000,,2013-05-21 19:21:00,
2013-05-21 12:52:00,42.0,37.0,-100.00,West,274,1.0,12.0,82,0.00,,,0.00,168.000000,,2013-05-21 19:52:00,
2013-05-21 13:03:00,42.0,37.0,-100.00,West,274,1.0,12.0,82,0.00,,,0.00,168.000000,,2013-05-21 20:03:00,
2013-05-21 13:11:00,42.0,37.0,-100.00,West,274,1.0,12.0,82,0.00,,,0.00,168.000000,,2013-05-21 20:11:00,
2013-05-21 13:22:00,42.0,37.0,-100.00,West,274,1.0,12.0,82,0.00,,,0.00,168.000000,,2013-05-21 20:22:00,
2013-05-21 13:52:00,40.0,36.0,-100.00,NW,311,0.0,8.0,86,0.10,,,0.10,64.000000,,2013-05-21 20:52:00,
2013-05-21 14:01:00,40.0,36.0,-100.00,NW,311,0.0,8.0,86,0.10,,,0.10,64.000000,,2013-05-21 21:01:00,
2013-05-21 14:11:00,40.0,36.0,-100.00,NW,311,0.0,8.0,86,0.10,,,0.10,64.000000,,2013-05-21 21:11:00,
2013-05-21 14:21:00,40.0,36.0,-100.00,NW,311,0.0,8.0,86,0.10,,,0.10,64.000000,,2013-05-21 21:21:00,
2013-05-21 14:54:00,38.0,34.0,-100.00,WNW,299,1.0,16.0,87,0.07,,,-99.99,196.000000,,2013-05-21 21:54:00,
2013-05-21 15:02:00,38.0,34.0,-100.00,WNW,299,1.0,16.0,87,0.07,,,-99.99,196.000000,,2013-05-21 22:02:00,
2013-05-21 15:12:00,38.0,34.0,-100.00,WNW,299,1.0,16.0,87,0.07,,,-99.99,196.000000,,2013-05-21 22:12:00,
2013-05-21 15:22:00,38.0,34.0,-100.00,WNW,299,1.0,16.0,87,0.07,,,-99.99,196.000000,,2013-05-21 22:22:00,
2013-05-21 15:53:00,40.0,36.0,-100.00,North,10,0.0,8.0,86,0.06,,,0.23,185.000000,,2013-05-21 22:53:00,
2013-05-21 16:02:00,40.0,36.0,-100.00,North,10,0.0,8.0,86,0.06,,,0.23,185.000000,,2013-05-21 23:02:00,
2013-05-21 16:12:00,40.0,36.0,-100.00,North,10,0.0,8.0,86,0.06,,,0.23,185.000000,,2013-05-21 23:12:00,
2013-05-21 16:22:00,40.0,36.0,-100.00,North,10,0.0,8.0,86,0.06,,,0.23,185.000000,,2013-05-21 23:22:00,
2013-05-21 16:52:00,41.0,37.0,-100.00,East,86,0.0,6.0,86,0.00,,,0.23,234.000000,,2013-05-21 23:52:00,
2013-05-21 17:01:00,41.0,37.0,-100.00,East,86,0.0,6.0,86,0.00,,,0.23,234.000000,,2013-05-22 00:01:00,
2013-05-21 17:11:00,41.0,37.0,-100.00,East,86,0.0,6.0,86,0.00,,,0.23,234.000000,,2013-05-22 00:11:00,
2013-05-21 17:21:00,41.0,37.0,-100.00,East,86,0.0,6.0,86,0.00,,,0.23,234.000000,,2013-05-22 00:21:00,
2013-05-21 17:52:00,42.0,36.0,-100.00,NNE,28,0.0,4.0,80,0.00,,,0.23,190.000000,,2013-05-22 00:52:00,
2013-05-21 18:01:00,42.0,36.0,-100.00,NNE,28,0.0,4.0,80,0.00,,,0.23,190.000000,,2013-05-22 01:01:00,
2013-05-21 18:11:00,42.0,36.0,-100.00,NNE,28,0.0,4.0,80,0.00,,,0.23,190.000000,,2013-05-22 01:11:00,
2013-05-21 18:21:00,42.0,36.0,-100.00,NNE,28,0.0,4.0,80,0.00,,,0.23,190.000000,,2013-05-22 01:21:00,
2013-05-21 18:52:00,40.0,35.0,-100.00,ENE,61,0.0,6.0,83,0.00,,,0.23,337.000000,,2013-05-22 01:52:00,
2013-05-21 19:01:00,40.0,35.0,-100.00,ENE,61,0.0,6.0,83,0.00,,,0.23,337.000000,,2013-05-22 02:01:00,
2013-05-21 19:11:00,40.0,35.0,-100.00,ENE,61,0.0,6.0,83,0.00,,,0.23,337.000000,,2013-05-22 02:11:00,
2013-05-21 19:21:00,40.0,35.0,-100.00,ENE,61,0.0,6.0,83,0.00,,,0.23,337.000000,,2013-05-22 02:21:00,
2013-05-21 19:52:00,41.0,35.0,-100.00,ESE,108,0.0,4.0,79,0.00,,,0.23,37.000000,,2013-05-22 02:52:00,
2013-05-21 20:01:00,41.0,35.0,-100.00,ESE,108,0.0,4.0,79,0.00,,,0.23,37.000000,,2013-05-22 03:01:00,
2013-05-21 20:11:00,41.0,35.0,-100.00,ESE,108,0.0,4.0,79,0.00,,,0.23,37.000000,,2013-05-22 03:11:00,
2013-05-21 20:21:00,41.0,35.0,-100.00,ESE,108,0.0,4.0,79,0.00,,,0.23,37.000000,,2013-05-22 03:21:00,
2013-05-21 20:53:00,35.0,32.0,-100.00,WNW,289,1.0,17.0,88,0.02,,,0.25,6.000000,,2013-05-22 03:53:00,
2013-05-21 21:03:00,35.0,32.0,-100.00,WNW,289,1.0,17.0,88,0.02,,,0.25,6.000000,,2013-05-22 04:03:00,
2013-05-21 21:12:00,35.0,32.0,-100.00,WNW,289,1.0,17.0,88,0.02,,,0.25,6.000000,,2013-05-22 04:12:00,
2013-05-21 21:22:00,35.0,32.0,-100.00,WNW,289,1.0,17.0,88,0.02,,,0.25,6.000000,,2013-05-22 04:22:00,
2013-05-21 21:53:00,35.0,32.0,-100.00,WNW,282,1.0,6.0,90,0.01,,,0.26,0.000000,,2013-05-22 04:53:00,
2013-05-21 22:02:00,35.0,32.0,-100.00,WNW,282,1.0,6.0,90,0.01,,,0.26,0.000000,,2013-05-22 05:02:00,
2013-05-21 22:11:00,35.0,32.0,-100.00,WNW,282,1.0,6.0,90,0.01,,,0.26,0.000000,,2013-05-22 05:11:00,
2013-05-21 22:21:00,35.0,32.0,-100.00,WNW,282,1.0,6.0,90,0.01,,,0.26,0.000000,,2013-05-22 05:21:00,
2013-05-21 22:52:00,33.0,29.0,-100.00,WNW,288,0.0,18.0,86,0.00,,,0.26,0.000000,,2013-05-22 05:52:00,
2013-05-21 23:01:00,33.0,29.0,-100.00,WNW,288,0.0,18.0,86,0.00,,,0.26,0.000000,,2013-05-22 06:01:00,
2013-05-21 23:11:00,33.0,29.0,-100.00,WNW,288,0.0,18.0,86,0.00,,,0.26,0.000000,,2013-05-22 06:11:00,
2013-05-21 23:21:00,33.0,29.0,-100.00,WNW,288,0.0,18.0,86,0.00,,,0.26,0.000000,,2013-05-22 06:21:00,
2013-05-21 23:52:00,32.0,29.0,-100.00,WNW,290,0.0,7.0,90,0.00,,,0.26,0.000000,,2013-05-22 06:52:00,